EDW50 LSZH-ENAT
Flight info
| Callsign | EDW50 |
|---|---|
| Flight time | 3h 18m |
| Altitude | 38000 |
| Route | DEGES1T DEGES Z1 SUDEN Y710 ETAGO N869 ANELA M726 KENIG N746 MAG M736 SALLO DCT GELMA DCT DEPEX DCT IBGAX DCT DEGED DCT LUKIG DCT OSKIR DCT VAGAS DCT BADIX BADIX1Q |
| Aircraft | A343/H-SDE2E3FGHIJ4J5M1RWXYZ/LB1D1 |
Departure
| Time | 2026-05-04 11:51 |
|---|---|
| Airport | Zürich Airport (LSZH) |
Arrival
| Time | 2026-05-04 15:10 |
|---|---|
| Airport | Alta Airport (ENAT) |
| Time | Latitude | Longitude | Altitude | Speed | Heading |
|---|---|---|---|---|---|
| 2026-05-04 11:17 | 47.45033 | 8.55857 | 1427 ft | 0 kts | 6° |
| 2026-05-04 11:36 | 47.45021 | 8.55855 | 1418 ft | 3 kts | 3° |
| 2026-05-04 11:36 | 47.45001 | 8.55854 | 1414 ft | 3 kts | 356° |
| 2026-05-04 11:37 | 47.44981 | 8.55857 | 1411 ft | 3 kts | 347° |
| 2026-05-04 11:37 | 47.44962 | 8.55866 | 1416 ft | 3 kts | 329° |
| 2026-05-04 11:37 | 47.44949 | 8.55883 | 1412 ft | 3 kts | 291° |
| 2026-05-04 11:37 | 47.44946 | 8.55893 | 1413 ft | 1 kts | 276° |
| 2026-05-04 11:40 | 47.44955 | 8.55773 | 1411 ft | 11 kts | 276° |
| 2026-05-04 11:41 | 47.44971 | 8.55675 | 1410 ft | 0 kts | 305° |
| 2026-05-04 11:41 | 47.44984 | 8.55661 | 1408 ft | 6 kts | 325° |
| 2026-05-04 11:41 | 47.45030 | 8.55623 | 1412 ft | 8 kts | 331° |
| 2026-05-04 11:41 | 47.45087 | 8.55582 | 1411 ft | 10 kts | 336° |
| 2026-05-04 11:42 | 47.45156 | 8.55536 | 1413 ft | 12 kts | 336° |
| 2026-05-04 11:42 | 47.45240 | 8.55480 | 1406 ft | 15 kts | 335° |
| 2026-05-04 11:42 | 47.45343 | 8.55412 | 1413 ft | 18 kts | 335° |
| 2026-05-04 11:42 | 47.45461 | 8.55332 | 1412 ft | 21 kts | 335° |
| 2026-05-04 11:43 | 47.45564 | 8.55260 | 1406 ft | 12 kts | 334° |
| 2026-05-04 11:43 | 47.45651 | 8.55198 | 1409 ft | 16 kts | 334° |
| 2026-05-04 11:43 | 47.45747 | 8.55129 | 1409 ft | 14 kts | 334° |
| 2026-05-04 11:43 | 47.45821 | 8.55077 | 1407 ft | 11 kts | 334° |
| 2026-05-04 11:44 | 47.45898 | 8.55022 | 1407 ft | 13 kts | 334° |
| 2026-05-04 11:44 | 47.45995 | 8.54954 | 1405 ft | 18 kts | 335° |
| 2026-05-04 11:44 | 47.46120 | 8.54871 | 1405 ft | 21 kts | 335° |
| 2026-05-04 11:44 | 47.46237 | 8.54792 | 1404 ft | 17 kts | 335° |
| 2026-05-04 11:45 | 47.46339 | 8.54723 | 1386 ft | 18 kts | 335° |
| 2026-05-04 11:45 | 47.46457 | 8.54643 | 1401 ft | 19 kts | 334° |
| 2026-05-04 11:45 | 47.46582 | 8.54554 | 1402 ft | 21 kts | 334° |
| 2026-05-04 11:45 | 47.46721 | 8.54457 | 1385 ft | 24 kts | 335° |
| 2026-05-04 11:46 | 47.46876 | 8.54366 | 1382 ft | 19 kts | 335° |
| 2026-05-04 11:46 | 47.46988 | 8.54287 | 1384 ft | 18 kts | 335° |
| 2026-05-04 11:46 | 47.47087 | 8.54218 | 1385 ft | 12 kts | 335° |
| 2026-05-04 11:46 | 47.47171 | 8.54160 | 1387 ft | 14 kts | 335° |
| 2026-05-04 11:47 | 47.47267 | 8.54094 | 1401 ft | 16 kts | 336° |
| 2026-05-04 11:47 | 47.47373 | 8.54024 | 1405 ft | 17 kts | 336° |
| 2026-05-04 11:47 | 47.47485 | 8.53948 | 1405 ft | 18 kts | 335° |
| 2026-05-04 11:47 | 47.47599 | 8.53868 | 1409 ft | 19 kts | 335° |
| 2026-05-04 11:48 | 47.47697 | 8.53790 | 1410 ft | 11 kts | 317° |
| 2026-05-04 11:48 | 47.47708 | 8.53742 | 1412 ft | 2 kts | 269° |
| 2026-05-04 11:48 | 47.47695 | 8.53710 | 1413 ft | 9 kts | 234° |
| 2026-05-04 11:48 | 47.47633 | 8.53646 | 1413 ft | 13 kts | 206° |
| 2026-05-04 11:49 | 47.47544 | 8.53620 | 1406 ft | 14 kts | 181° |
| 2026-05-04 11:49 | 47.47495 | 8.53646 | 1407 ft | 0 kts | 152° |
| 2026-05-04 11:50 | 47.47483 | 8.53655 | 1409 ft | 13 kts | 153° |
| 2026-05-04 11:50 | 47.47305 | 8.53776 | 1404 ft | 45 kts | 155° |
| 2026-05-04 11:50 | 47.46829 | 8.54105 | 1382 ft | 105 kts | 154° |
| 2026-05-04 11:51 | 47.46018 | 8.54667 | 1403 ft | 151 kts | 155° |
| 2026-05-04 11:51 | 47.44969 | 8.55380 | 1482 ft | 182 kts | 153° |
| 2026-05-04 11:51 | 47.43759 | 8.56172 | 1842 ft | 196 kts | 154° |
| 2026-05-04 11:51 | 47.42486 | 8.57035 | 2379 ft | 210 kts | 153° |
| 2026-05-04 11:52 | 47.41135 | 8.57988 | 3118 ft | 218 kts | 153° |
| 2026-05-04 11:52 | 47.39899 | 8.59379 | 3802 ft | 232 kts | 124° |
| 2026-05-04 11:52 | 47.39428 | 8.61695 | 4392 ft | 254 kts | 86° |
| 2026-05-04 11:52 | 47.39999 | 8.64190 | 4864 ft | 258 kts | 53° |
| 2026-05-04 11:53 | 47.41381 | 8.65840 | 5393 ft | 265 kts | 31° |
| 2026-05-04 11:53 | 47.42478 | 8.66750 | 5769 ft | 271 kts | 30° |
| 2026-05-04 11:53 | 47.44319 | 8.69263 | 6509 ft | 276 kts | 57° |
| 2026-05-04 11:53 | 47.45239 | 8.71760 | 7033 ft | 281 kts | 70° |
| 2026-05-04 11:55 | 47.45166 | 8.92955 | 11016 ft | 334 kts | 103° |
| 2026-05-04 11:55 | 47.44676 | 8.96380 | 11553 ft | 346 kts | 103° |
| 2026-05-04 11:56 | 47.44178 | 8.99889 | 12198 ft | 353 kts | 103° |
| 2026-05-04 11:56 | 47.43670 | 9.03471 | 12877 ft | 359 kts | 103° |
| 2026-05-04 11:56 | 47.43149 | 9.07102 | 13578 ft | 364 kts | 104° |
| 2026-05-04 11:56 | 47.42617 | 9.10788 | 14244 ft | 369 kts | 104° |
| 2026-05-04 11:57 | 47.42087 | 9.14463 | 14928 ft | 372 kts | 104° |
| 2026-05-04 11:57 | 47.41787 | 9.18275 | 15666 ft | 378 kts | 91° |
| 2026-05-04 11:57 | 47.42198 | 9.22120 | 16345 ft | 384 kts | 73° |
| 2026-05-04 11:57 | 47.43238 | 9.25782 | 16999 ft | 390 kts | 65° |
| 2026-05-04 11:58 | 47.44521 | 9.29349 | 17611 ft | 396 kts | 61° |
| 2026-05-04 11:58 | 47.45924 | 9.32877 | 18272 ft | 401 kts | 60° |
| 2026-05-04 11:58 | 47.46919 | 9.35198 | 18625 ft | 405 kts | 56° |
| 2026-05-04 11:58 | 47.49477 | 9.39321 | 19384 ft | 411 kts | 39° |
| 2026-05-04 11:59 | 47.51900 | 9.41562 | 19964 ft | 414 kts | 25° |
| 2026-05-04 11:59 | 47.53646 | 9.42718 | 20330 ft | 416 kts | 21° |
| 2026-05-04 11:59 | 47.57280 | 9.44605 | 21071 ft | 420 kts | 12° |
| 2026-05-04 11:59 | 47.59221 | 9.45118 | 21450 ft | 420 kts | 4° |
| 2026-05-04 12:00 | 47.63098 | 9.45557 | 22175 ft | 424 kts | 0° |
| 2026-05-04 12:00 | 47.66063 | 9.45719 | 22698 ft | 428 kts | 359° |
| 2026-05-04 12:00 | 47.68042 | 9.45793 | 23039 ft | 430 kts | 359° |
| 2026-05-04 12:00 | 47.71041 | 9.45895 | 23561 ft | 433 kts | 359° |
| 2026-05-04 12:01 | 47.74071 | 9.46007 | 23989 ft | 436 kts | 359° |
| 2026-05-04 12:01 | 47.78103 | 9.46183 | 24570 ft | 440 kts | 359° |
| 2026-05-04 12:02 | 47.96762 | 9.46257 | 27063 ft | 454 kts | 357° |
| 2026-05-04 12:03 | 47.98853 | 9.46240 | 27320 ft | 455 kts | 357° |
| 2026-05-04 12:03 | 48.03072 | 9.46217 | 27842 ft | 458 kts | 357° |
| 2026-05-04 12:03 | 48.06265 | 9.46209 | 28220 ft | 461 kts | 357° |
| 2026-05-04 12:03 | 48.08386 | 9.46205 | 28458 ft | 462 kts | 357° |
| 2026-05-04 12:04 | 48.12699 | 9.46196 | 28958 ft | 465 kts | 357° |
| 2026-05-04 12:04 | 48.15942 | 9.46190 | 29311 ft | 467 kts | 357° |
| 2026-05-04 12:04 | 48.18101 | 9.46185 | 29545 ft | 468 kts | 357° |
| 2026-05-04 12:04 | 48.22431 | 9.46181 | 29995 ft | 471 kts | 357° |
| 2026-05-04 12:05 | 48.25724 | 9.46186 | 30293 ft | 473 kts | 357° |
| 2026-05-04 12:05 | 48.29029 | 9.46193 | 30543 ft | 477 kts | 357° |
| 2026-05-04 12:05 | 48.32352 | 9.46198 | 30797 ft | 479 kts | 357° |
| 2026-05-04 12:05 | 48.34560 | 9.46202 | 30996 ft | 480 kts | 357° |
| 2026-05-04 12:06 | 48.37911 | 9.46207 | 31277 ft | 481 kts | 357° |
| 2026-05-04 12:06 | 48.41262 | 9.46210 | 31528 ft | 483 kts | 356° |
| 2026-05-04 12:06 | 48.44629 | 9.46213 | 31807 ft | 485 kts | 356° |
| 2026-05-04 12:06 | 48.48006 | 9.46216 | 32171 ft | 484 kts | 356° |
| 2026-05-04 12:07 | 48.52452 | 9.46222 | 32683 ft | 482 kts | 356° |
| 2026-05-04 12:07 | 48.54677 | 9.46226 | 32912 ft | 481 kts | 356° |
| 2026-05-04 12:07 | 48.58024 | 9.46208 | 33246 ft | 481 kts | 356° |
| 2026-05-04 12:07 | 48.61361 | 9.46167 | 33626 ft | 479 kts | 355° |
| 2026-05-04 12:08 | 48.64701 | 9.46267 | 33962 ft | 481 kts | 1° |
| 2026-05-04 12:08 | 48.68017 | 9.47030 | 34258 ft | 485 kts | 10° |
| 2026-05-04 12:08 | 48.71242 | 9.48598 | 34543 ft | 488 kts | 20° |
| 2026-05-04 12:08 | 48.74251 | 9.50988 | 34796 ft | 491 kts | 32° |
| 2026-05-04 12:09 | 48.76951 | 9.54175 | 35074 ft | 493 kts | 43° |
| 2026-05-04 12:09 | 48.79287 | 9.57962 | 35355 ft | 492 kts | 49° |
| 2026-05-04 12:09 | 48.81471 | 9.61881 | 35619 ft | 492 kts | 50° |
| 2026-05-04 12:09 | 48.83632 | 9.65913 | 35854 ft | 491 kts | 51° |
| 2026-05-04 12:10 | 48.85762 | 9.69950 | 36207 ft | 489 kts | 51° |
| 2026-05-04 12:10 | 48.87885 | 9.73980 | 36495 ft | 487 kts | 51° |
| 2026-05-04 12:10 | 48.90003 | 9.77988 | 36748 ft | 488 kts | 51° |
| 2026-05-04 12:10 | 48.92130 | 9.81999 | 36960 ft | 487 kts | 51° |
| 2026-05-04 12:11 | 48.94260 | 9.86004 | 37221 ft | 487 kts | 51° |
| 2026-05-04 12:11 | 48.96363 | 9.89955 | 37474 ft | 486 kts | 51° |
| 2026-05-04 12:11 | 48.98484 | 9.93941 | 37712 ft | 485 kts | 51° |
| 2026-05-04 12:11 | 49.00608 | 9.97937 | 37939 ft | 485 kts | 51° |
| 2026-05-04 12:12 | 49.04844 | 10.05925 | 37996 ft | 481 kts | 51° |
| 2026-05-04 12:12 | 49.09035 | 10.13853 | 38017 ft | 479 kts | 51° |
| 2026-05-04 12:14 | 49.27078 | 10.43643 | 38019 ft | 478 kts | 44° |
| 2026-05-04 12:15 | 49.31774 | 10.50787 | 38018 ft | 480 kts | 44° |
| 2026-05-04 12:15 | 49.36495 | 10.58022 | 38014 ft | 480 kts | 45° |
| 2026-05-04 12:16 | 49.41097 | 10.65445 | 38013 ft | 480 kts | 46° |
| 2026-05-04 12:16 | 49.45701 | 10.72886 | 38012 ft | 480 kts | 45° |
| 2026-05-04 12:17 | 49.50368 | 10.80248 | 37985 ft | 480 kts | 45° |
| 2026-05-04 12:17 | 49.55001 | 10.87535 | 37993 ft | 479 kts | 45° |
| 2026-05-04 12:18 | 49.59649 | 10.94902 | 37993 ft | 479 kts | 45° |
| 2026-05-04 12:18 | 49.64279 | 11.02274 | 37991 ft | 479 kts | 45° |
| 2026-05-04 12:19 | 49.68918 | 11.09673 | 37996 ft | 479 kts | 45° |
| 2026-05-04 12:19 | 49.73690 | 11.16750 | 37992 ft | 478 kts | 35° |
| 2026-05-04 12:20 | 49.76483 | 11.19483 | 37989 ft | 474 kts | 24° |
| 2026-05-04 12:20 | 49.79524 | 11.21374 | 37996 ft | 470 kts | 13° |
| 2026-05-04 12:20 | 49.82718 | 11.22333 | 37999 ft | 465 kts | 1° |
| 2026-05-04 12:20 | 49.85933 | 11.22601 | 38003 ft | 463 kts | 358° |
| 2026-05-04 12:21 | 49.92383 | 11.22688 | 38008 ft | 463 kts | 356° |
| 2026-05-04 12:21 | 49.98830 | 11.22638 | 38012 ft | 463 kts | 356° |
| 2026-05-04 12:22 | 50.05256 | 11.22628 | 37992 ft | 464 kts | 356° |
| 2026-05-04 12:22 | 50.11710 | 11.22663 | 38009 ft | 464 kts | 356° |
| 2026-05-04 12:23 | 50.18121 | 11.22703 | 38004 ft | 463 kts | 356° |
| 2026-05-04 12:23 | 50.24570 | 11.22741 | 38000 ft | 463 kts | 356° |
| 2026-05-04 12:24 | 50.31015 | 11.22778 | 37999 ft | 463 kts | 356° |
| 2026-05-04 12:24 | 50.37443 | 11.22532 | 38002 ft | 461 kts | 351° |
| 2026-05-04 12:25 | 50.43786 | 11.21677 | 37996 ft | 461 kts | 350° |
| 2026-05-04 12:25 | 50.50162 | 11.20709 | 37996 ft | 460 kts | 350° |
| 2026-05-04 12:26 | 50.56541 | 11.19726 | 37994 ft | 461 kts | 350° |
| 2026-05-04 12:26 | 50.62925 | 11.18751 | 37990 ft | 461 kts | 350° |
| 2026-05-04 12:27 | 50.69280 | 11.17787 | 37989 ft | 461 kts | 350° |
| 2026-05-04 12:27 | 50.75670 | 11.16814 | 37990 ft | 461 kts | 350° |
| 2026-05-04 12:28 | 50.82063 | 11.15832 | 37997 ft | 462 kts | 350° |
| 2026-05-04 12:28 | 50.88415 | 11.14861 | 37992 ft | 462 kts | 350° |
| 2026-05-04 12:29 | 50.94818 | 11.13874 | 37992 ft | 462 kts | 350° |
| 2026-05-04 12:29 | 51.01203 | 11.12884 | 37991 ft | 462 kts | 350° |
| 2026-05-04 12:30 | 51.07610 | 11.11891 | 37994 ft | 462 kts | 349° |
| 2026-05-04 12:30 | 51.14074 | 11.11666 | 37990 ft | 470 kts | 3° |
| 2026-05-04 12:31 | 51.20503 | 11.13331 | 37989 ft | 473 kts | 6° |
| 2026-05-04 12:31 | 51.26964 | 11.15352 | 37989 ft | 473 kts | 7° |
| 2026-05-04 12:32 | 51.36652 | 11.18462 | 37968 ft | 474 kts | 7° |
| 2026-05-04 12:33 | 51.43071 | 11.20483 | 37979 ft | 474 kts | 7° |
| 2026-05-04 12:33 | 51.49547 | 11.22515 | 37980 ft | 474 kts | 7° |
| 2026-05-04 12:34 | 51.56023 | 11.24555 | 37969 ft | 474 kts | 7° |
| 2026-05-04 12:34 | 51.62295 | 11.27979 | 37976 ft | 483 kts | 26° |
| 2026-05-04 12:35 | 51.67713 | 11.34317 | 38000 ft | 487 kts | 38° |
| 2026-05-04 12:35 | 51.72849 | 11.41468 | 37998 ft | 488 kts | 39° |
| 2026-05-04 12:36 | 51.77931 | 11.48741 | 37991 ft | 488 kts | 39° |
| 2026-05-04 12:36 | 51.83031 | 11.56005 | 37995 ft | 489 kts | 39° |
| 2026-05-04 12:37 | 51.88105 | 11.63203 | 37990 ft | 489 kts | 39° |
| 2026-05-04 12:37 | 51.93218 | 11.70458 | 37983 ft | 489 kts | 39° |
| 2026-05-04 12:38 | 51.98634 | 11.76992 | 37977 ft | 482 kts | 24° |
| 2026-05-04 12:38 | 52.01692 | 11.79097 | 37973 ft | 475 kts | 12° |
| 2026-05-04 12:38 | 52.04892 | 11.80271 | 37970 ft | 469 kts | 4° |
| 2026-05-04 12:39 | 52.11314 | 11.81617 | 37964 ft | 468 kts | 1° |
| 2026-05-04 12:39 | 52.17797 | 11.82652 | 37987 ft | 468 kts | 0° |
| 2026-05-04 12:40 | 52.24281 | 11.83694 | 37964 ft | 468 kts | 1° |
| 2026-05-04 12:40 | 52.30725 | 11.84791 | 37961 ft | 469 kts | 1° |
| 2026-05-04 12:41 | 52.37211 | 11.85920 | 37958 ft | 469 kts | 1° |
| 2026-05-04 12:41 | 52.43701 | 11.87055 | 37961 ft | 469 kts | 1° |
| 2026-05-04 12:42 | 52.50190 | 11.88194 | 37956 ft | 468 kts | 1° |
| 2026-05-04 12:42 | 52.56623 | 11.89323 | 37964 ft | 468 kts | 1° |
| 2026-05-04 12:43 | 52.63093 | 11.90743 | 37962 ft | 473 kts | 9° |
| 2026-05-04 12:43 | 52.69388 | 11.94105 | 37961 ft | 477 kts | 15° |
| 2026-05-04 12:44 | 52.75609 | 11.97943 | 37963 ft | 478 kts | 17° |
| 2026-05-04 12:44 | 52.81665 | 12.02385 | 37962 ft | 480 kts | 21° |
| 2026-05-04 12:45 | 52.87696 | 12.07185 | 37960 ft | 481 kts | 22° |
| 2026-05-04 12:45 | 52.93713 | 12.12037 | 37955 ft | 481 kts | 22° |
| 2026-05-04 12:46 | 52.99729 | 12.16672 | 37960 ft | 479 kts | 19° |
| 2026-05-04 12:46 | 53.05894 | 12.20871 | 37959 ft | 478 kts | 18° |
| 2026-05-04 12:47 | 53.12061 | 12.25047 | 37974 ft | 479 kts | 18° |
| 2026-05-04 12:47 | 53.18198 | 12.29304 | 37957 ft | 477 kts | 19° |
| 2026-05-04 12:48 | 53.24282 | 12.33581 | 37957 ft | 477 kts | 19° |
| 2026-05-04 12:48 | 53.30403 | 12.37906 | 37952 ft | 478 kts | 19° |
| 2026-05-04 12:49 | 53.36530 | 12.42246 | 37962 ft | 478 kts | 19° |
| 2026-05-04 12:49 | 53.42601 | 12.46558 | 37947 ft | 477 kts | 19° |
| 2026-05-04 12:50 | 53.48707 | 12.50907 | 37945 ft | 477 kts | 19° |
| 2026-05-04 12:50 | 53.54808 | 12.55267 | 37947 ft | 477 kts | 19° |
| 2026-05-04 12:51 | 53.60905 | 12.59637 | 37948 ft | 476 kts | 19° |
| 2026-05-04 12:51 | 53.66999 | 12.64019 | 37951 ft | 476 kts | 19° |
| 2026-05-04 12:52 | 53.73046 | 12.68380 | 37947 ft | 476 kts | 19° |
| 2026-05-04 12:52 | 53.79133 | 12.72782 | 37956 ft | 476 kts | 19° |
| 2026-05-04 12:53 | 53.85215 | 12.77194 | 37956 ft | 475 kts | 19° |
| 2026-05-04 12:53 | 53.91252 | 12.81586 | 37955 ft | 475 kts | 19° |
| 2026-05-04 12:54 | 53.97334 | 12.86025 | 37957 ft | 475 kts | 20° |
| 2026-05-04 12:54 | 54.03415 | 12.90478 | 37954 ft | 475 kts | 20° |
| 2026-05-04 12:55 | 54.09490 | 12.94940 | 37963 ft | 477 kts | 20° |
| 2026-05-04 12:55 | 54.15685 | 12.98654 | 37962 ft | 475 kts | 13° |
| 2026-05-04 12:56 | 54.22023 | 13.01869 | 37960 ft | 475 kts | 12° |
| 2026-05-04 12:56 | 54.28376 | 13.05003 | 37964 ft | 475 kts | 12° |
| 2026-05-04 12:57 | 54.34732 | 13.08146 | 37963 ft | 476 kts | 12° |
| 2026-05-04 12:57 | 54.41057 | 13.11298 | 37965 ft | 476 kts | 12° |
| 2026-05-04 12:58 | 54.47424 | 13.14491 | 37959 ft | 477 kts | 13° |
| 2026-05-04 12:58 | 54.53761 | 13.17860 | 37955 ft | 477 kts | 14° |
| 2026-05-04 12:59 | 54.60101 | 13.21342 | 37960 ft | 479 kts | 14° |
| 2026-05-04 12:59 | 54.66463 | 13.24824 | 37952 ft | 480 kts | 14° |
| 2026-05-04 13:00 | 54.72788 | 13.28271 | 37953 ft | 480 kts | 14° |
| 2026-05-04 13:00 | 54.79162 | 13.31748 | 37966 ft | 480 kts | 14° |
| 2026-05-04 13:01 | 54.85546 | 13.35240 | 37946 ft | 482 kts | 14° |
| 2026-05-04 13:01 | 54.91919 | 13.38561 | 37945 ft | 480 kts | 8° |
| 2026-05-04 13:02 | 54.98434 | 13.41090 | 37935 ft | 479 kts | 8° |
| 2026-05-04 13:02 | 55.04955 | 13.43489 | 37947 ft | 479 kts | 8° |
| 2026-05-04 13:03 | 55.11487 | 13.45870 | 37920 ft | 479 kts | 8° |
| 2026-05-04 13:03 | 55.18009 | 13.48262 | 37922 ft | 479 kts | 8° |
| 2026-05-04 13:04 | 55.24500 | 13.50659 | 37915 ft | 480 kts | 8° |
| 2026-05-04 13:04 | 55.31025 | 13.53080 | 37914 ft | 479 kts | 8° |
| 2026-05-04 13:05 | 55.37561 | 13.55513 | 37909 ft | 479 kts | 8° |
| 2026-05-04 13:05 | 55.44046 | 13.57935 | 37910 ft | 480 kts | 8° |
| 2026-05-04 13:06 | 55.50575 | 13.60381 | 37914 ft | 480 kts | 8° |
| 2026-05-04 13:06 | 55.57102 | 13.62835 | 37906 ft | 480 kts | 8° |
| 2026-05-04 13:07 | 55.63625 | 13.65295 | 37900 ft | 479 kts | 8° |
| 2026-05-04 13:07 | 55.70148 | 13.67762 | 37898 ft | 479 kts | 8° |
| 2026-05-04 13:08 | 55.76629 | 13.70224 | 37892 ft | 479 kts | 8° |
| 2026-05-04 13:08 | 55.83154 | 13.72711 | 37899 ft | 479 kts | 8° |
| 2026-05-04 13:09 | 55.89674 | 13.75206 | 37890 ft | 479 kts | 8° |
| 2026-05-04 13:09 | 55.96185 | 13.77704 | 37890 ft | 479 kts | 8° |
| 2026-05-04 13:10 | 56.02654 | 13.80194 | 37884 ft | 479 kts | 8° |
| 2026-05-04 13:10 | 56.09167 | 13.82711 | 37880 ft | 479 kts | 8° |
| 2026-05-04 13:11 | 56.15679 | 13.85236 | 37875 ft | 478 kts | 8° |
| 2026-05-04 13:11 | 56.22178 | 13.87763 | 37870 ft | 478 kts | 8° |
| 2026-05-04 13:12 | 56.28631 | 13.90281 | 37866 ft | 478 kts | 8° |
| 2026-05-04 13:12 | 56.35128 | 13.92827 | 37871 ft | 478 kts | 8° |
| 2026-05-04 13:13 | 56.41616 | 13.95379 | 37856 ft | 477 kts | 8° |
| 2026-05-04 13:13 | 56.48092 | 13.97934 | 37856 ft | 476 kts | 8° |
| 2026-05-04 13:14 | 56.54525 | 14.00483 | 37860 ft | 476 kts | 7° |
| 2026-05-04 13:14 | 56.60992 | 14.03051 | 37859 ft | 475 kts | 7° |
| 2026-05-04 13:15 | 56.67448 | 14.05623 | 37851 ft | 475 kts | 7° |
| 2026-05-04 13:15 | 56.73901 | 14.08203 | 37842 ft | 475 kts | 7° |
| 2026-05-04 13:16 | 56.80310 | 14.10775 | 37836 ft | 475 kts | 7° |
| 2026-05-04 13:16 | 56.86769 | 14.13376 | 37847 ft | 475 kts | 7° |
| 2026-05-04 13:17 | 56.93223 | 14.15986 | 37831 ft | 475 kts | 7° |
| 2026-05-04 13:17 | 56.99673 | 14.18603 | 37825 ft | 475 kts | 7° |
| 2026-05-04 13:18 | 57.06083 | 14.21199 | 37798 ft | 475 kts | 7° |
| 2026-05-04 13:18 | 57.12555 | 14.23549 | 37829 ft | 474 kts | 6° |
| 2026-05-04 13:19 | 57.19038 | 14.25809 | 37798 ft | 474 kts | 6° |
| 2026-05-04 13:19 | 57.25518 | 14.28111 | 37806 ft | 474 kts | 6° |
| 2026-05-04 13:20 | 57.32000 | 14.30454 | 37798 ft | 475 kts | 6° |
| 2026-05-04 13:20 | 57.38439 | 14.32800 | 37797 ft | 475 kts | 6° |
| 2026-05-04 13:21 | 57.44920 | 14.35171 | 37794 ft | 475 kts | 6° |
| 2026-05-04 13:21 | 57.51408 | 14.37551 | 37786 ft | 475 kts | 6° |
| 2026-05-04 13:22 | 57.57892 | 14.39938 | 37774 ft | 475 kts | 6° |
| 2026-05-04 13:22 | 57.64337 | 14.42319 | 37767 ft | 475 kts | 6° |
| 2026-05-04 13:23 | 57.70826 | 14.44724 | 37766 ft | 476 kts | 6° |
| 2026-05-04 13:23 | 57.77325 | 14.47140 | 37765 ft | 476 kts | 6° |
| 2026-05-04 13:24 | 57.83782 | 14.49552 | 37766 ft | 476 kts | 6° |
| 2026-05-04 13:24 | 57.90281 | 14.51989 | 37761 ft | 476 kts | 6° |
| 2026-05-04 13:25 | 58.00028 | 14.55661 | 37749 ft | 476 kts | 6° |
| 2026-05-04 13:25 | 58.06490 | 14.58104 | 37749 ft | 476 kts | 6° |
| 2026-05-04 13:26 | 58.12991 | 14.60572 | 37745 ft | 476 kts | 6° |
| 2026-05-04 13:26 | 58.19485 | 14.63047 | 37783 ft | 476 kts | 6° |
| 2026-05-04 13:27 | 58.25984 | 14.65532 | 37743 ft | 476 kts | 6° |
| 2026-05-04 13:27 | 58.32437 | 14.68008 | 37737 ft | 477 kts | 6° |
| 2026-05-04 13:28 | 58.38940 | 14.70515 | 37745 ft | 477 kts | 6° |
| 2026-05-04 13:28 | 58.45445 | 14.73032 | 37746 ft | 477 kts | 6° |
| 2026-05-04 13:29 | 58.51902 | 14.75540 | 37744 ft | 477 kts | 6° |
| 2026-05-04 13:29 | 58.58410 | 14.78076 | 37742 ft | 477 kts | 6° |
| 2026-05-04 13:30 | 58.64916 | 14.80621 | 37737 ft | 477 kts | 6° |
| 2026-05-04 13:30 | 58.71433 | 14.83181 | 37738 ft | 478 kts | 6° |
| 2026-05-04 13:31 | 58.77943 | 14.85747 | 37730 ft | 478 kts | 6° |
| 2026-05-04 13:31 | 58.84418 | 14.88308 | 37724 ft | 478 kts | 6° |
| 2026-05-04 13:32 | 58.90948 | 14.90903 | 37717 ft | 479 kts | 6° |
| 2026-05-04 13:32 | 58.97465 | 14.93502 | 37711 ft | 478 kts | 6° |
| 2026-05-04 13:33 | 59.03992 | 14.96115 | 37727 ft | 479 kts | 6° |
| 2026-05-04 13:33 | 59.10476 | 14.98720 | 37703 ft | 480 kts | 6° |
| 2026-05-04 13:34 | 59.17020 | 15.01362 | 37722 ft | 480 kts | 6° |
| 2026-05-04 13:34 | 59.23455 | 15.05196 | 37719 ft | 486 kts | 13° |
| 2026-05-04 13:35 | 59.32990 | 15.11784 | 37719 ft | 487 kts | 14° |
| 2026-05-04 13:36 | 59.39380 | 15.16285 | 37709 ft | 488 kts | 14° |
| 2026-05-04 13:36 | 59.45778 | 15.20795 | 37694 ft | 488 kts | 14° |
| 2026-05-04 13:37 | 59.52180 | 15.25314 | 37673 ft | 488 kts | 14° |
| 2026-05-04 13:37 | 59.58529 | 15.29809 | 37684 ft | 489 kts | 14° |
| 2026-05-04 13:38 | 59.64935 | 15.34362 | 37659 ft | 490 kts | 14° |
| 2026-05-04 13:38 | 59.71353 | 15.38944 | 37658 ft | 490 kts | 14° |
| 2026-05-04 13:39 | 59.77828 | 15.43103 | 37651 ft | 487 kts | 9° |
| 2026-05-04 13:39 | 59.84363 | 15.46530 | 37682 ft | 486 kts | 8° |
| 2026-05-04 13:40 | 59.90870 | 15.49957 | 37642 ft | 488 kts | 9° |
| 2026-05-04 13:40 | 59.97419 | 15.53553 | 37635 ft | 488 kts | 10° |
| 2026-05-04 13:41 | 60.03964 | 15.57228 | 37633 ft | 489 kts | 10° |
| 2026-05-04 13:41 | 60.10509 | 15.60927 | 37630 ft | 489 kts | 10° |
| 2026-05-04 13:42 | 60.20294 | 15.66472 | 37629 ft | 490 kts | 10° |
| 2026-05-04 13:42 | 60.26854 | 15.70206 | 37630 ft | 490 kts | 10° |
| 2026-05-04 13:43 | 60.33423 | 15.73963 | 37637 ft | 490 kts | 10° |
| 2026-05-04 13:43 | 60.39941 | 15.77703 | 37636 ft | 490 kts | 10° |
| 2026-05-04 13:44 | 60.46510 | 15.81488 | 37630 ft | 491 kts | 10° |
| 2026-05-04 13:44 | 60.53085 | 15.85293 | 37603 ft | 491 kts | 10° |
| 2026-05-04 13:45 | 60.59665 | 15.89120 | 37603 ft | 491 kts | 10° |
| 2026-05-04 13:45 | 60.66195 | 15.92933 | 37598 ft | 491 kts | 10° |
| 2026-05-04 13:46 | 60.72766 | 15.96786 | 37597 ft | 492 kts | 10° |
| 2026-05-04 13:46 | 60.79343 | 16.00659 | 37590 ft | 492 kts | 10° |
| 2026-05-04 13:47 | 60.85917 | 16.04547 | 37590 ft | 492 kts | 10° |
| 2026-05-04 13:47 | 60.92447 | 16.08423 | 37592 ft | 492 kts | 10° |
| 2026-05-04 13:48 | 60.99022 | 16.12344 | 37589 ft | 492 kts | 11° |
| 2026-05-04 13:48 | 61.05598 | 16.16283 | 37584 ft | 492 kts | 11° |
| 2026-05-04 13:49 | 61.12172 | 16.20238 | 37583 ft | 492 kts | 11° |
| 2026-05-04 13:49 | 61.18711 | 16.24187 | 37583 ft | 493 kts | 11° |
| 2026-05-04 13:50 | 61.25286 | 16.28178 | 37619 ft | 493 kts | 11° |
| 2026-05-04 13:50 | 61.31863 | 16.32187 | 37586 ft | 493 kts | 11° |
| 2026-05-04 13:51 | 61.38446 | 16.36216 | 37584 ft | 493 kts | 11° |
| 2026-05-04 13:51 | 61.44980 | 16.40233 | 37591 ft | 493 kts | 11° |
| 2026-05-04 13:52 | 61.54849 | 16.46334 | 37613 ft | 493 kts | 11° |
| 2026-05-04 13:53 | 61.61437 | 16.50428 | 37596 ft | 494 kts | 11° |
| 2026-05-04 13:53 | 61.68027 | 16.54543 | 37595 ft | 494 kts | 11° |
| 2026-05-04 13:54 | 61.77873 | 16.60728 | 37601 ft | 494 kts | 11° |
| 2026-05-04 13:55 | 61.87768 | 16.66980 | 37614 ft | 495 kts | 12° |
| 2026-05-04 13:55 | 61.97664 | 16.73279 | 37601 ft | 495 kts | 12° |
| 2026-05-04 13:56 | 62.04207 | 16.77465 | 37604 ft | 495 kts | 12° |
| 2026-05-04 13:57 | 62.14097 | 16.83876 | 37609 ft | 495 kts | 13° |
| 2026-05-04 13:58 | 62.27175 | 16.92881 | 37606 ft | 495 kts | 13° |
| 2026-05-04 13:58 | 62.37015 | 16.99678 | 37607 ft | 495 kts | 13° |
| 2026-05-04 13:59 | 62.43572 | 17.04217 | 37610 ft | 495 kts | 13° |
| 2026-05-04 14:00 | 62.53354 | 17.11027 | 37606 ft | 494 kts | 13° |
| 2026-05-04 14:00 | 62.63183 | 17.17918 | 37602 ft | 495 kts | 13° |
| 2026-05-04 14:01 | 62.69733 | 17.22537 | 37624 ft | 495 kts | 13° |
| 2026-05-04 14:02 | 62.79513 | 17.29476 | 37599 ft | 495 kts | 13° |
| 2026-05-04 14:02 | 62.86062 | 17.34151 | 37598 ft | 495 kts | 14° |
| 2026-05-04 14:03 | 62.92616 | 17.38850 | 37599 ft | 495 kts | 14° |
| 2026-05-04 14:03 | 62.99172 | 17.43572 | 37616 ft | 496 kts | 14° |
| 2026-05-04 14:04 | 63.08944 | 17.50651 | 37607 ft | 495 kts | 14° |
| 2026-05-04 14:04 | 63.15488 | 17.55422 | 37603 ft | 495 kts | 14° |
| 2026-05-04 14:05 | 63.25297 | 17.62615 | 37596 ft | 495 kts | 14° |
| 2026-05-04 14:06 | 63.31794 | 17.67408 | 37581 ft | 495 kts | 14° |
| 2026-05-04 14:06 | 63.38340 | 17.72259 | 37574 ft | 495 kts | 14° |
| 2026-05-04 14:07 | 63.44872 | 17.77123 | 37568 ft | 495 kts | 14° |
| 2026-05-04 14:07 | 63.51370 | 17.81985 | 37566 ft | 495 kts | 14° |
| 2026-05-04 14:08 | 63.57904 | 17.86899 | 37564 ft | 495 kts | 14° |
| 2026-05-04 14:08 | 63.64437 | 17.91835 | 37565 ft | 495 kts | 14° |
| 2026-05-04 14:09 | 63.74236 | 17.99285 | 37559 ft | 495 kts | 14° |
| 2026-05-04 14:10 | 63.83989 | 18.06752 | 37559 ft | 495 kts | 14° |
| 2026-05-04 14:10 | 63.90529 | 18.11791 | 37558 ft | 496 kts | 14° |
| 2026-05-04 14:11 | 63.97061 | 18.16848 | 37542 ft | 496 kts | 14° |
| 2026-05-04 14:11 | 64.06808 | 18.24553 | 37554 ft | 497 kts | 15° |
| 2026-05-04 14:12 | 64.13324 | 18.29829 | 37546 ft | 497 kts | 15° |
| 2026-05-04 14:13 | 64.23108 | 18.37765 | 37534 ft | 497 kts | 15° |
| 2026-05-04 14:13 | 64.29594 | 18.43044 | 37536 ft | 498 kts | 15° |
| 2026-05-04 14:14 | 64.36116 | 18.48378 | 37536 ft | 498 kts | 15° |
| 2026-05-04 14:14 | 64.45900 | 18.56430 | 37538 ft | 497 kts | 15° |
| 2026-05-04 14:15 | 64.58859 | 18.67197 | 37519 ft | 496 kts | 15° |
| 2026-05-04 14:16 | 64.68604 | 18.75358 | 37520 ft | 496 kts | 15° |
| 2026-05-04 14:17 | 64.78295 | 18.83539 | 37519 ft | 495 kts | 15° |
| 2026-05-04 14:18 | 64.87997 | 18.91795 | 37511 ft | 494 kts | 16° |
| 2026-05-04 14:19 | 65.00881 | 19.02852 | 37503 ft | 494 kts | 16° |
| 2026-05-04 14:19 | 65.07345 | 19.08443 | 37502 ft | 495 kts | 16° |
| 2026-05-04 14:20 | 65.13815 | 19.14070 | 37506 ft | 495 kts | 16° |
| 2026-05-04 14:20 | 65.20285 | 19.19726 | 37503 ft | 495 kts | 16° |
| 2026-05-04 14:21 | 65.29948 | 19.28229 | 37504 ft | 495 kts | 16° |
| 2026-05-04 14:21 | 65.36417 | 19.33957 | 37502 ft | 496 kts | 17° |
| 2026-05-04 14:22 | 65.42890 | 19.39720 | 37498 ft | 496 kts | 17° |
| 2026-05-04 14:22 | 65.49367 | 19.45516 | 37498 ft | 497 kts | 17° |
| 2026-05-04 14:23 | 65.59040 | 19.54231 | 37497 ft | 497 kts | 17° |
| 2026-05-04 14:24 | 65.65522 | 19.60002 | 37504 ft | 495 kts | 13° |
| 2026-05-04 14:24 | 65.72230 | 19.63086 | 37491 ft | 489 kts | 4° |
| 2026-05-04 14:25 | 65.78932 | 19.65207 | 37499 ft | 489 kts | 3° |
| 2026-05-04 14:25 | 65.89065 | 19.68195 | 37493 ft | 489 kts | 3° |
| 2026-05-04 14:26 | 65.95826 | 19.70232 | 37537 ft | 489 kts | 3° |
| 2026-05-04 14:26 | 66.02579 | 19.72298 | 37509 ft | 489 kts | 3° |
| 2026-05-04 14:27 | 66.09284 | 19.74366 | 37506 ft | 488 kts | 3° |
| 2026-05-04 14:27 | 66.16026 | 19.76456 | 37246 ft | 490 kts | 3° |
| 2026-05-04 14:28 | 66.19408 | 19.77507 | 36716 ft | 491 kts | 3° |
| 2026-05-04 14:28 | 66.22800 | 19.78564 | 36174 ft | 491 kts | 3° |
| 2026-05-04 14:28 | 66.26184 | 19.79622 | 35802 ft | 490 kts | 3° |
| 2026-05-04 14:28 | 66.29582 | 19.80686 | 35629 ft | 493 kts | 3° |
| 2026-05-04 14:29 | 66.36353 | 19.82816 | 35495 ft | 494 kts | 3° |
| 2026-05-04 14:29 | 66.43158 | 19.84972 | 35491 ft | 493 kts | 3° |
| 2026-05-04 14:30 | 66.49954 | 19.87136 | 35490 ft | 492 kts | 3° |
| 2026-05-04 14:31 | 66.60141 | 19.90399 | 35499 ft | 492 kts | 3° |
| 2026-05-04 14:32 | 66.73674 | 19.94778 | 35510 ft | 492 kts | 3° |
| 2026-05-04 14:32 | 66.80467 | 19.96991 | 35492 ft | 493 kts | 4° |
| 2026-05-04 14:33 | 66.87269 | 19.99222 | 35490 ft | 493 kts | 4° |
| 2026-05-04 14:33 | 66.94028 | 20.01453 | 35509 ft | 493 kts | 4° |
| 2026-05-04 14:34 | 67.00810 | 20.03705 | 35491 ft | 491 kts | 4° |
| 2026-05-04 14:34 | 67.07583 | 20.05965 | 35492 ft | 490 kts | 4° |
| 2026-05-04 14:35 | 67.14354 | 20.08236 | 35497 ft | 490 kts | 4° |
| 2026-05-04 14:35 | 67.21070 | 20.10501 | 35492 ft | 490 kts | 4° |
| 2026-05-04 14:36 | 67.27836 | 20.12797 | 35501 ft | 490 kts | 4° |
| 2026-05-04 14:36 | 67.34591 | 20.15291 | 35485 ft | 492 kts | 11° |
| 2026-05-04 14:37 | 67.41203 | 20.20078 | 35492 ft | 493 kts | 13° |
| 2026-05-04 14:37 | 67.47750 | 20.25055 | 35492 ft | 493 kts | 13° |
| 2026-05-04 14:38 | 67.54337 | 20.30127 | 35479 ft | 494 kts | 13° |
| 2026-05-04 14:38 | 67.60916 | 20.35233 | 35473 ft | 493 kts | 13° |
| 2026-05-04 14:39 | 67.67487 | 20.40366 | 35452 ft | 492 kts | 13° |
| 2026-05-04 14:39 | 67.73992 | 20.45478 | 35443 ft | 491 kts | 14° |
| 2026-05-04 14:40 | 67.83830 | 20.53265 | 35443 ft | 491 kts | 14° |
| 2026-05-04 14:40 | 67.87103 | 20.55871 | 35280 ft | 493 kts | 14° |
| 2026-05-04 14:40 | 67.90389 | 20.58495 | 34919 ft | 493 kts | 14° |
| 2026-05-04 14:41 | 67.93632 | 20.61093 | 34584 ft | 493 kts | 14° |
| 2026-05-04 14:41 | 67.96912 | 20.63729 | 34256 ft | 493 kts | 14° |
| 2026-05-04 14:41 | 68.03478 | 20.69026 | 33536 ft | 494 kts | 14° |
| 2026-05-04 14:42 | 68.10064 | 20.74373 | 32648 ft | 495 kts | 14° |
| 2026-05-04 14:42 | 68.13374 | 20.77071 | 32211 ft | 496 kts | 14° |
| 2026-05-04 14:42 | 68.16673 | 20.79770 | 31780 ft | 496 kts | 14° |
| 2026-05-04 14:43 | 68.19935 | 20.82445 | 31356 ft | 497 kts | 14° |
| 2026-05-04 14:43 | 68.23236 | 20.85161 | 30959 ft | 496 kts | 14° |
| 2026-05-04 14:43 | 68.26523 | 20.87875 | 30544 ft | 492 kts | 15° |
| 2026-05-04 14:43 | 68.29780 | 20.90573 | 30135 ft | 488 kts | 15° |
| 2026-05-04 14:44 | 68.33010 | 20.93256 | 29730 ft | 483 kts | 15° |
| 2026-05-04 14:44 | 68.36211 | 20.95922 | 29264 ft | 479 kts | 15° |
| 2026-05-04 14:44 | 68.39383 | 20.98571 | 28771 ft | 475 kts | 15° |
| 2026-05-04 14:44 | 68.42526 | 21.01203 | 28288 ft | 471 kts | 15° |
| 2026-05-04 14:45 | 68.45642 | 21.03821 | 27807 ft | 466 kts | 15° |
| 2026-05-04 14:45 | 68.48688 | 21.06387 | 27340 ft | 461 kts | 15° |
| 2026-05-04 14:45 | 68.51730 | 21.08957 | 26863 ft | 456 kts | 15° |
| 2026-05-04 14:45 | 68.54750 | 21.11515 | 26426 ft | 452 kts | 15° |
| 2026-05-04 14:46 | 68.57737 | 21.14053 | 25981 ft | 447 kts | 15° |
| 2026-05-04 14:46 | 68.60692 | 21.16570 | 25538 ft | 442 kts | 15° |
| 2026-05-04 14:46 | 68.63616 | 21.19068 | 25101 ft | 438 kts | 15° |
| 2026-05-04 14:46 | 68.65538 | 21.20714 | 24811 ft | 436 kts | 15° |
| 2026-05-04 14:47 | 68.69387 | 21.24020 | 24239 ft | 430 kts | 15° |
| 2026-05-04 14:47 | 68.72188 | 21.26432 | 23872 ft | 426 kts | 16° |
| 2026-05-04 14:47 | 68.74999 | 21.28858 | 23508 ft | 423 kts | 16° |
| 2026-05-04 14:47 | 68.77806 | 21.31286 | 23148 ft | 420 kts | 16° |
| 2026-05-04 14:48 | 68.79651 | 21.32886 | 22864 ft | 418 kts | 16° |
| 2026-05-04 14:48 | 68.83248 | 21.36015 | 22303 ft | 414 kts | 16° |
| 2026-05-04 14:48 | 68.85985 | 21.38403 | 21876 ft | 412 kts | 16° |
| 2026-05-04 14:48 | 68.87792 | 21.39984 | 21595 ft | 410 kts | 15° |
| 2026-05-04 14:49 | 68.91425 | 21.43169 | 20963 ft | 408 kts | 15° |
| 2026-05-04 14:49 | 68.94089 | 21.45510 | 20474 ft | 405 kts | 16° |
| 2026-05-04 14:49 | 68.96764 | 21.47869 | 19994 ft | 402 kts | 16° |
| 2026-05-04 14:49 | 68.99423 | 21.50219 | 19520 ft | 400 kts | 16° |
| 2026-05-04 14:50 | 69.01181 | 21.51775 | 19210 ft | 398 kts | 16° |
| 2026-05-04 14:50 | 69.04697 | 21.54896 | 18584 ft | 395 kts | 16° |
| 2026-05-04 14:50 | 69.07311 | 21.57224 | 18137 ft | 393 kts | 16° |
| 2026-05-04 14:50 | 69.09031 | 21.58759 | 17836 ft | 391 kts | 16° |
| 2026-05-04 14:51 | 69.11614 | 21.61068 | 17323 ft | 389 kts | 17° |
| 2026-05-04 14:51 | 69.14187 | 21.63375 | 16821 ft | 386 kts | 17° |
| 2026-05-04 14:51 | 69.17551 | 21.66399 | 16165 ft | 381 kts | 17° |
| 2026-05-04 14:51 | 69.20066 | 21.68667 | 15682 ft | 378 kts | 16° |
| 2026-05-04 14:52 | 69.21756 | 21.70189 | 15349 ft | 376 kts | 16° |
| 2026-05-04 14:52 | 69.24204 | 21.72404 | 14886 ft | 373 kts | 16° |
| 2026-05-04 14:52 | 69.27492 | 21.75391 | 14259 ft | 369 kts | 16° |
| 2026-05-04 14:52 | 69.29927 | 21.77609 | 13807 ft | 366 kts | 16° |
| 2026-05-04 14:53 | 69.31531 | 21.79073 | 13506 ft | 364 kts | 16° |
| 2026-05-04 14:53 | 69.33931 | 21.81265 | 13009 ft | 362 kts | 17° |
| 2026-05-04 14:53 | 69.37091 | 21.84160 | 12353 ft | 358 kts | 17° |
| 2026-05-04 14:53 | 69.38688 | 21.85625 | 12115 ft | 355 kts | 17° |
| 2026-05-04 14:54 | 69.41016 | 21.87770 | 11853 ft | 350 kts | 17° |
| 2026-05-04 14:54 | 69.44091 | 21.90605 | 11564 ft | 347 kts | 17° |
| 2026-05-04 14:54 | 69.45597 | 21.91998 | 11555 ft | 342 kts | 17° |
| 2026-05-04 14:54 | 69.45607 | 21.92007 | 11555 ft | 342 kts | 17° |
| 2026-05-04 14:55 | 69.47591 | 21.93844 | 11550 ft | 330 kts | 17° |
| 2026-05-04 14:55 | 69.49725 | 21.95827 | 11544 ft | 315 kts | 17° |
| 2026-05-04 14:55 | 69.51763 | 21.97725 | 11546 ft | 302 kts | 17° |
| 2026-05-04 14:55 | 69.54380 | 22.00163 | 11551 ft | 297 kts | 17° |
| 2026-05-04 14:56 | 69.55710 | 22.01401 | 11550 ft | 297 kts | 17° |
| 2026-05-04 14:56 | 69.57650 | 22.03215 | 11550 ft | 297 kts | 17° |
| 2026-05-04 14:56 | 69.59618 | 22.05060 | 11551 ft | 298 kts | 17° |
| 2026-05-04 14:56 | 69.61585 | 22.06908 | 11551 ft | 298 kts | 17° |
| 2026-05-04 14:57 | 69.63554 | 22.08760 | 11548 ft | 297 kts | 17° |
| 2026-05-04 14:57 | 69.65525 | 22.10618 | 11550 ft | 297 kts | 17° |
| 2026-05-04 14:57 | 69.67468 | 22.12454 | 11551 ft | 298 kts | 17° |
| 2026-05-04 14:57 | 69.70098 | 22.14943 | 11554 ft | 298 kts | 17° |
| 2026-05-04 14:58 | 69.71400 | 22.16177 | 11551 ft | 297 kts | 17° |
| 2026-05-04 14:58 | 69.73367 | 22.18044 | 11550 ft | 297 kts | 17° |
| 2026-05-04 14:58 | 69.75331 | 22.19915 | 11551 ft | 298 kts | 17° |
| 2026-05-04 14:58 | 69.77299 | 22.21793 | 11551 ft | 297 kts | 17° |
| 2026-05-04 14:59 | 69.79897 | 22.24314 | 11552 ft | 298 kts | 19° |
| 2026-05-04 14:59 | 69.81212 | 22.25691 | 11554 ft | 298 kts | 19° |
| 2026-05-04 14:59 | 69.85103 | 22.29827 | 11553 ft | 298 kts | 19° |
| 2026-05-04 15:00 | 69.87025 | 22.31854 | 11553 ft | 298 kts | 19° |
| 2026-05-04 15:00 | 69.88975 | 22.33909 | 11471 ft | 298 kts | 19° |
| 2026-05-04 15:00 | 69.90930 | 22.35972 | 11055 ft | 301 kts | 19° |
| 2026-05-04 15:01 | 69.94967 | 22.40253 | 9818 ft | 316 kts | 19° |
| 2026-05-04 15:01 | 69.97046 | 22.42462 | 9193 ft | 320 kts | 20° |
| 2026-05-04 15:01 | 69.99147 | 22.44697 | 8526 ft | 323 kts | 20° |
| 2026-05-04 15:01 | 70.01260 | 22.46952 | 7877 ft | 322 kts | 20° |
| 2026-05-04 15:02 | 70.03292 | 22.49124 | 7258 ft | 306 kts | 20° |
| 2026-05-04 15:02 | 70.05083 | 22.51954 | 6643 ft | 284 kts | 42° |
| 2026-05-04 15:02 | 70.06100 | 22.56624 | 6049 ft | 268 kts | 74° |
| 2026-05-04 15:02 | 70.06439 | 22.61860 | 5437 ft | 256 kts | 83° |
| 2026-05-04 15:03 | 70.06657 | 22.66947 | 4825 ft | 248 kts | 83° |
| 2026-05-04 15:03 | 70.06868 | 22.71896 | 4215 ft | 241 kts | 83° |
| 2026-05-04 15:03 | 70.07079 | 22.76700 | 3733 ft | 231 kts | 83° |
| 2026-05-04 15:03 | 70.07278 | 22.81169 | 3584 ft | 210 kts | 83° |
| 2026-05-04 15:04 | 70.07450 | 22.85131 | 3640 ft | 181 kts | 84° |
| 2026-05-04 15:04 | 70.07328 | 22.88480 | 3895 ft | 162 kts | 105° |
| 2026-05-04 15:04 | 70.06962 | 22.91559 | 3978 ft | 157 kts | 116° |
| 2026-05-04 15:04 | 70.06441 | 22.94335 | 3984 ft | 158 kts | 121° |
| 2026-05-04 15:05 | 70.05878 | 22.97111 | 3893 ft | 159 kts | 121° |
| 2026-05-04 15:05 | 70.05331 | 22.99926 | 3606 ft | 160 kts | 119° |
| 2026-05-04 15:05 | 70.04825 | 23.02426 | 3325 ft | 158 kts | 122° |
| 2026-05-04 15:05 | 70.04258 | 23.05136 | 3008 ft | 155 kts | 121° |
| 2026-05-04 15:06 | 70.04200 | 23.05420 | 2984 ft | 155 kts | 121° |
| 2026-05-04 15:06 | 70.03752 | 23.07599 | 2723 ft | 155 kts | 120° |
| 2026-05-04 15:07 | 70.02700 | 23.12715 | 2120 ft | 141 kts | 120° |
| 2026-05-04 15:07 | 70.02208 | 23.15096 | 1853 ft | 138 kts | 120° |
| 2026-05-04 15:07 | 70.01701 | 23.17533 | 1620 ft | 138 kts | 120° |
| 2026-05-04 15:07 | 70.01203 | 23.19924 | 1400 ft | 138 kts | 120° |
| 2026-05-04 15:08 | 70.00703 | 23.22312 | 1174 ft | 137 kts | 121° |
| 2026-05-04 15:08 | 70.00211 | 23.24642 | 901 ft | 136 kts | 121° |
| 2026-05-04 15:08 | 69.99708 | 23.26986 | 674 ft | 134 kts | 121° |
| 2026-05-04 15:08 | 69.99227 | 23.29324 | 541 ft | 137 kts | 118° |
| 2026-05-04 15:09 | 69.98738 | 23.31721 | 320 ft | 136 kts | 117° |
| 2026-05-04 15:09 | 69.98250 | 23.34060 | 123 ft | 135 kts | 118° |
| 2026-05-04 15:09 | 69.97789 | 23.36313 | 39 ft | 111 kts | 121° |
| 2026-05-04 15:10 | 69.97417 | 23.38082 | 41 ft | 33 kts | 121° |
| 2026-05-04 15:10 | 69.97319 | 23.38554 | 39 ft | 11 kts | 121° |
| 2026-05-04 15:10 | 69.97238 | 23.38880 | 42 ft | 8 kts | 127° |
| 2026-05-04 15:11 | 69.97240 | 23.38920 | 42 ft | 1 kts | 61° |
| 2026-05-04 15:11 | 69.97247 | 23.38925 | 42 ft | 1 kts | 21° |
| 2026-05-04 15:11 | 69.97255 | 23.38906 | 42 ft | 2 kts | 320° |
| 2026-05-04 15:11 | 69.97276 | 23.38778 | 41 ft | 11 kts | 297° |
| 2026-05-04 15:12 | 69.97317 | 23.38560 | 40 ft | 14 kts | 300° |
| 2026-05-04 15:12 | 69.97371 | 23.38302 | 40 ft | 16 kts | 301° |
| 2026-05-04 15:12 | 69.97429 | 23.38028 | 42 ft | 16 kts | 301° |
| 2026-05-04 15:12 | 69.97488 | 23.37747 | 43 ft | 17 kts | 300° |
| 2026-05-04 15:13 | 69.97552 | 23.37426 | 40 ft | 20 kts | 300° |
| 2026-05-04 15:13 | 69.97629 | 23.37051 | 39 ft | 22 kts | 301° |
| 2026-05-04 15:13 | 69.97709 | 23.36674 | 40 ft | 22 kts | 301° |
| 2026-05-04 15:13 | 69.97793 | 23.36274 | 38 ft | 24 kts | 301° |
| 2026-05-04 15:14 | 69.97879 | 23.35855 | 38 ft | 17 kts | 301° |
| 2026-05-04 15:14 | 69.97914 | 23.35684 | 39 ft | 9 kts | 301° |
| 2026-05-04 15:14 | 69.97942 | 23.35518 | 40 ft | 9 kts | 287° |
| 2026-05-04 15:14 | 69.97925 | 23.35337 | 38 ft | 10 kts | 219° |
| 2026-05-04 15:15 | 69.97876 | 23.35161 | 39 ft | 12 kts | 251° |
| 2026-05-04 15:15 | 69.97884 | 23.34926 | 39 ft | 12 kts | 303° |
| 2026-05-04 15:15 | 69.97923 | 23.34766 | 39 ft | 7 kts | 305° |
| 2026-05-04 15:16 | 69.97950 | 23.34540 | 39 ft | 4 kts | 247° |
| 2026-05-04 15:16 | 69.97937 | 23.34517 | 39 ft | 3 kts | 214° |
| 2026-05-04 15:16 | 69.97906 | 23.34461 | 38 ft | 1 kts | 211° |
| 2026-05-04 15:17 | 69.97902 | 23.34454 | 39 ft | 0 kts | 211° |